Minot International Airport Minot US
ICAO: KMOT
IATA: MOT
Category: Medium
Scheduled Services: Yes

Elevation: 1716 ft
TransAlt. 18000 ft.

Airport Communications:
APP:119.6
CTAF:118.2
DEP:119.6
GND:121.9
GRAND FORKS RDO:122.2
MAGIC CITY TWR:118.2
UNICOM:122.95

KMOT Zoom In..

If you have problems with the map follow the link
https://www.worldairports.se/pages/airport.php?
ICAO=KMOT

Runways:

(A) RW 08 length 6351 ft width 100 ft
---- / hdg 80

(B) RW 13 length 7700 ft width 150 ft
---- / hdg 128

(C) RW 26 length 6351 ft width 100 ft
---- / hdg 260

(D) RW 31 length 7700 ft width 150 ft
ILS 111.90 / hdg 308

Location; KMOT
Day. 14 / Time. 10.54 Zulu
* Altimeter: 29.99
* Temperature: 00° c. 32°f.
* Wind from: 210° Speed 13 kn.
Dewpoint: -04° c.
Visibility: 10 Statute Miles.
Clouds: Clear (automated report).

KMOT 141054Z AUTO 21013KT 10SM CLR 00/M04 A2999 RMK AO2 SLP175 T00001039


Wind From 210°
Speed 13 kn.

 
 
jpsmedia.com for Web Design worldairports.se 2018   terms of use